Time;durP1;ratioP1;P1;durP2;ratioP2;P2;SDS_P1;SDS_P2;PMS_P1;PMS_P2;Temp;Humidity;BMP_temperature;BMP_pressure;BME280_temperature;BME280_humidity;BME280_pressure;Samples;Min_cycle;Max_cycle;Signal;HPM_P1;HPM_P2
2023/10/23 00:02:09;;;;;;;2.63;1.03;;;;;;;8.35;77.49;95357.56;6189956;23;20198;-85
2023/10/23 00:04:35;;;;;;;3.17;1.10;;;;;;;8.23;78.21;95356.88;6164538;23;20189;-84
2023/10/23 00:07:00;;;;;;;3.87;1.03;;;;;;;8.20;78.58;95349.38;6164093;23;20160;-83
2023/10/23 00:09:25;;;;;;;1.93;1.10;;;;;;;8.21;78.26;95350.19;6164386;23;20158;-83
2023/10/23 00:11:51;;;;;;;1.93;0.97;;;;;;;8.17;78.01;95354.84;6213025;23;20162;-83
2023/10/23 00:14:16;;;;;;;2.97;1.00;;;;;;;8.20;78.20;95353.72;6213030;23;20174;-84
2023/10/23 00:16:41;;;;;;;2.00;1.00;;;;;;;8.18;78.21;95356.47;6189864;23;20154;-82
2023/10/23 00:19:07;;;;;;;2.40;0.80;;;;;;;8.21;78.22;95366.53;6164268;23;20175;-83
2023/10/23 00:21:32;;;;;;;3.00;0.90;;;;;;;8.26;77.73;95367.91;6164081;23;20468;-84
2023/10/23 00:23:57;;;;;;;4.03;1.17;;;;;;;8.19;78.62;95372.81;6177759;23;20217;-82
2023/10/23 00:26:24;;;;;;;4.27;1.07;;;;;;;8.16;78.48;95371.31;6182884;23;20162;-82
2023/10/23 00:28:49;;;;;;;3.63;1.13;;;;;;;8.15;78.79;95369.69;6173118;23;20178;-82
2023/10/23 00:31:14;;;;;;;2.20;0.80;;;;;;;8.13;78.46;95370.78;6192708;23;20614;-84
2023/10/23 00:33:39;;;;;;;1.87;0.80;;;;;;;8.12;78.53;95377.69;6217961;23;20166;-82
2023/10/23 00:36:05;;;;;;;3.00;0.70;;;;;;;8.06;78.49;95378.25;6193589;23;20154;-84
2023/10/23 00:38:31;;;;;;;3.43;1.33;;;;;;;8.04;79.61;95376.75;6167374;23;20201;-83
2023/10/23 00:40:56;;;;;;;3.47;0.83;;;;;;;8.04;80.23;95377.59;6165598;23;20170;-83
2023/10/23 00:43:23;;;;;;;4.07;1.17;;;;;;;8.12;79.71;95379.47;6165499;23;20154;-84
2023/10/23 00:45:58;;;;;;;3.70;0.80;;;;;;;8.17;79.27;95372.94;6163845;23;20189;-83
2023/10/23 00:48:25;;;;;;;2.00;0.87;;;;;;;8.13;79.36;95370.78;6164513;23;20200;-84
2023/10/23 00:50:51;;;;;;;2.90;1.37;;;;;;;8.10;79.58;95371.03;6163660;23;20162;-83
2023/10/23 00:53:22;;;;;;;3.50;1.10;;;;;;;8.18;79.48;95369.41;6164009;23;20164;-83
2023/10/23 00:55:49;;;;;;;2.67;1.00;;;;;;;8.16;79.47;95368.72;6188296;23;20154;-83
2023/10/23 00:58:15;;;;;;;3.93;1.23;;;;;;;8.16;79.59;95371.31;6164320;23;20634;-82
2023/10/23 01:00:42;;;;;;;1.77;1.03;;;;;;;8.15;79.55;95374.03;6163928;23;20162;-82
2023/10/23 01:03:07;;;;;;;4.17;1.23;;;;;;;8.14;79.65;95368.06;6163408;23;20154;-84
2023/10/23 01:05:33;;;;;;;1.53;1.00;;;;;;;8.16;79.42;95363.56;6187285;23;20232;-84
2023/10/23 01:07:58;;;;;;;3.37;0.90;;;;;;;8.16;79.33;95360.97;6163005;23;20183;-83
2023/10/23 01:10:24;;;;;;;2.93;0.97;;;;;;;8.10;79.75;95353.75;6189479;23;20540;-84
2023/10/23 01:12:49;;;;;;;2.83;1.10;;;;;;;8.11;79.71;95359.72;6187216;23;20166;-84
2023/10/23 01:15:14;;;;;;;2.37;0.80;;;;;;;8.05;79.54;95355.13;6162541;23;20170;-83
2023/10/23 01:17:39;;;;;;;2.07;0.80;;;;;;;8.13;79.14;95353.50;6187995;23;20209;-84
2023/10/23 01:20:08;;;;;;;2.73;0.80;;;;;;;8.09;79.13;95353.88;6212426;23;20304;-84
2023/10/23 01:22:33;;;;;;;4.00;0.97;;;;;;;8.02;79.11;95352.78;6162896;23;20673;-83
2023/10/23 01:24:59;;;;;;;2.90;1.00;;;;;;;8.03;79.13;95349.25;6211381;23;20187;-82
2023/10/23 01:27:25;;;;;;;3.27;1.10;;;;;;;7.95;79.35;95357.69;6187505;23;20200;-85
2023/10/23 01:29:50;;;;;;;2.63;1.00;;;;;;;7.95;79.27;95357.69;6212186;23;20189;-85
2023/10/23 01:32:15;;;;;;;5.83;1.30;;;;;;;7.93;79.09;95360.41;6187995;23;20154;-84
2023/10/23 01:34:41;;;;;;;4.70;1.20;;;;;;;7.88;79.38;95354.03;6188823;23;20574;-81
2023/10/23 01:37:06;;;;;;;3.43;1.00;;;;;;;7.85;79.35;95360.28;6162617;23;20183;-81
2023/10/23 01:39:31;;;;;;;7.77;2.40;;;;;;;7.89;79.47;95358.25;6186778;23;20147;-83
2023/10/23 01:41:56;;;;;;;4.40;1.20;;;;;;;7.86;79.60;95358.50;6187391;23;20162;-81
2023/10/23 01:44:22;;;;;;;4.93;1.00;;;;;;;7.90;79.28;95352.94;6161073;23;20193;-82
2023/10/23 01:46:47;;;;;;;4.40;1.10;;;;;;;7.88;79.12;95356.63;6211876;23;20162;-83
2023/10/23 01:49:12;;;;;;;6.10;1.03;;;;;;;7.94;79.45;95353.47;6161991;23;20171;-83
2023/10/23 01:51:38;;;;;;;2.90;1.13;;;;;;;7.92;79.52;95345.84;6162588;23;20161;-83
2023/10/23 01:54:04;;;;;;;1.80;0.70;;;;;;;7.95;79.37;95349.94;6185942;23;20183;-83
2023/10/23 01:56:29;;;;;;;3.33;1.00;;;;;;;7.98;79.26;95349.69;6161950;23;20606;-83
2023/10/23 01:58:54;;;;;;;5.63;1.00;;;;;;;7.90;78.94;95341.78;6162172;23;20186;-83
2023/10/23 02:01:23;;;;;;;2.80;0.70;;;;;;;7.91;79.13;95340.81;6162125;23;20162;-81
2023/10/23 02:03:50;;;;;;;3.20;1.13;;;;;;;7.89;79.28;95350.50;6163066;23;20190;-83
2023/10/23 02:06:16;;;;;;;2.27;0.87;;;;;;;7.92;79.12;95347.63;6213433;23;20216;-82
2023/10/23 02:08:41;;;;;;;1.50;0.70;;;;;;;7.91;79.47;95349.41;6163702;23;20182;-82
2023/10/23 02:11:08;;;;;;;3.03;1.00;;;;;;;7.91;79.51;95348.59;6163151;23;20275;-82
2023/10/23 02:13:33;;;;;;;2.07;0.80;;;;;;;7.90;79.63;95347.78;6164191;23;20257;-84
2023/10/23 02:15:59;;;;;;;3.83;1.20;;;;;;;7.88;79.79;95348.88;6162734;23;20151;-83
2023/10/23 02:18:24;;;;;;;2.00;0.67;;;;;;;7.86;79.32;95343.84;6188689;23;20639;-82
2023/10/23 02:20:50;;;;;;;4.97;1.10;;;;;;;7.80;79.48;95351.31;6188748;23;20151;-83
2023/10/23 02:23:15;;;;;;;2.37;0.97;;;;;;;7.83;79.92;95343.28;6163882;23;20155;-84
2023/10/23 02:25:41;;;;;;;3.23;0.80;;;;;;;7.80;79.47;95346.13;6163510;23;20205;-84
2023/10/23 02:28:06;;;;;;;3.57;0.80;;;;;;;7.74;80.04;95344.09;6163719;23;20186;-82
2023/10/23 02:30:31;;;;;;;4.30;0.90;;;;;;;7.76;79.50;95344.75;6163594;23;20163;-83
2023/10/23 02:32:57;;;;;;;3.13;0.83;;;;;;;7.70;79.78;95343.56;6188520;23;20150;-81
2023/10/23 02:35:22;;;;;;;3.13;0.97;;;;;;;7.69;79.76;95341.09;6163657;23;20162;-82
2023/10/23 02:37:49;;;;;;;4.27;0.87;;;;;;;7.69;79.92;95335.94;6188754;23;20179;-83
2023/10/23 02:40:15;;;;;;;2.63;0.97;;;;;;;7.67;79.71;95346.38;6188615;23;20166;-82
2023/10/23 02:42:40;;;;;;;2.80;0.87;;;;;;;7.66;79.49;95342.16;6188079;23;20165;-84
2023/10/23 02:45:06;;;;;;;2.20;0.80;;;;;;;7.69;79.89;95338.53;6162649;23;20205;-84
2023/10/23 02:47:32;;;;;;;1.57;0.73;;;;;;;7.66;79.87;95334.41;6163638;23;20240;-81
2023/10/23 02:49:57;;;;;;;2.03;1.00;;;;;;;7.68;80.23;95337.69;6188070;23;20626;-84
2023/10/23 02:52:23;;;;;;;1.13;0.70;;;;;;;7.74;80.17;95342.31;6213270;23;20169;-82
2023/10/23 02:54:50;;;;;;;5.67;0.90;;;;;;;7.74;79.95;95342.31;6162714;23;20154;-81
2023/10/23 02:57:15;;;;;;;2.57;1.10;;;;;;;7.75;79.70;95345.72;6164431;23;20185;-83
2023/10/23 02:59:46;;;;;;;3.63;1.10;;;;;;;7.66;80.04;95349.94;6162497;23;20237;-81
2023/10/23 03:02:12;;;;;;;2.23;0.80;;;;;;;7.62;80.24;95349.38;6163478;23;20194;-83
2023/10/23 03:04:37;;;;;;;3.07;1.30;;;;;;;7.60;80.07;95335.78;6186543;23;20187;-83
2023/10/23 03:07:02;;;;;;;1.70;1.00;;;;;;;7.57;80.15;95340.41;6187480;23;20163;-82
2023/10/23 03:09:28;;;;;;;1.40;0.80;;;;;;;7.50;80.80;95334.94;6162546;23;20155;-82
2023/10/23 03:11:53;;;;;;;3.37;1.00;;;;;;;7.53;80.81;95333.88;6162528;23;20595;-83
2023/10/23 03:14:18;;;;;;;4.10;1.30;;;;;;;7.57;80.29;95341.22;6186640;23;20566;-84
2023/10/23 03:16:44;;;;;;;3.77;1.00;;;;;;;7.55;80.24;95335.38;6162744;23;20174;-84
2023/10/23 03:19:09;;;;;;;6.57;1.10;;;;;;;7.53;79.99;95341.63;6211787;23;20182;-82
2023/10/23 03:21:34;;;;;;;2.10;0.83;;;;;;;7.53;79.62;95339.84;6187896;23;20223;-83
2023/10/23 03:23:59;;;;;;;2.97;1.20;;;;;;;7.56;79.54;95334.41;6206670;23;20159;-83
2023/10/23 03:26:25;;;;;;;2.17;0.80;;;;;;;7.54;79.89;95338.91;6207586;23;20139;-82
2023/10/23 03:28:50;;;;;;;1.70;1.07;;;;;;;7.53;79.95;95332.09;6194028;23;20185;-83
2023/10/23 03:31:15;;;;;;;4.47;0.90;;;;;;;7.51;79.68;95331.44;6194080;23;20155;-82
2023/10/23 03:33:41;;;;;;;3.57;0.90;;;;;;;7.53;79.70;95334.69;6216955;23;20167;-83
2023/10/23 03:36:06;;;;;;;5.43;1.10;;;;;;;7.54;79.68;95336.31;6167303;23;20574;-82
2023/10/23 03:38:32;;;;;;;3.30;0.80;;;;;;;7.51;79.88;95330.59;6193178;23;20170;-82
2023/10/23 03:40:58;;;;;;;4.37;0.80;;;;;;;7.49;79.80;95333.31;6190603;23;20256;-82
2023/10/23 03:43:23;;;;;;;3.97;0.80;;;;;;;7.48;80.36;95331.69;6190779;23;20177;-83
2023/10/23 03:45:49;;;;;;;5.03;1.10;;;;;;;7.45;80.34;95326.78;6189542;23;20622;-81
2023/10/23 03:48:14;;;;;;;3.00;0.70;;;;;;;7.42;80.68;95331.38;6165929;23;20174;-84
2023/10/23 03:50:39;;;;;;;3.00;1.00;;;;;;;7.43;80.56;95323.53;6215206;23;20245;-83
2023/10/23 03:53:05;;;;;;;2.73;0.97;;;;;;;7.43;80.60;95328.69;6190166;23;20575;-84
2023/10/23 03:55:30;;;;;;;2.83;0.90;;;;;;;7.46;80.98;95322.44;6164256;23;20685;-84
2023/10/23 03:57:55;;;;;;;2.17;1.10;;;;;;;7.46;81.02;95323.25;6164558;23;20198;-83
2023/10/23 04:00:20;;;;;;;2.73;1.00;;;;;;;7.44;81.32;95320.00;6164800;23;20166;-83
2023/10/23 04:02:46;;;;;;;2.27;0.90;;;;;;;7.43;81.33;95320.13;6188088;23;20154;-83
2023/10/23 04:05:11;;;;;;;2.57;1.00;;;;;;;7.45;81.41;95316.44;6163145;23;20186;-83
2023/10/23 04:07:36;;;;;;;2.70;0.90;;;;;;;7.48;81.73;95316.19;6163826;23;20178;-84
2023/10/23 04:10:05;;;;;;;3.27;1.03;;;;;;;7.50;81.27;95322.00;6163762;23;20182;-84
2023/10/23 04:12:31;;;;;;;2.23;1.00;;;;;;;7.48;81.20;95311.00;6163926;23;20508;-82
2023/10/23 04:14:56;;;;;;;2.00;0.80;;;;;;;7.48;81.10;95312.78;6187239;23;20625;-84
2023/10/23 04:17:22;;;;;;;3.30;1.07;;;;;;;7.51;81.50;95321.09;6211953;23;20182;-83
2023/10/23 04:19:48;;;;;;;3.13;0.70;;;;;;;7.48;81.20;95318.75;6164811;23;20165;-82
2023/10/23 04:22:13;;;;;;;2.43;0.90;;;;;;;7.52;81.28;95314.97;6192003;23;20205;-84
2023/10/23 04:24:38;;;;;;;2.80;0.80;;;;;;;7.58;81.22;95316.19;6187214;23;20191;-82
2023/10/23 04:27:04;;;;;;;4.20;1.00;;;;;;;7.59;80.85;95310.88;6162862;23;20162;-82
2023/10/23 04:29:29;;;;;;;3.23;1.40;;;;;;;7.61;80.88;95306.41;6162831;23;20162;-83
2023/10/23 04:31:54;;;;;;;2.20;0.97;;;;;;;7.67;80.91;95305.84;6186725;23;20150;-82
2023/10/23 04:34:19;;;;;;;3.20;1.20;;;;;;;7.65;80.70;95296.59;6188379;23;20526;-82
2023/10/23 04:36:45;;;;;;;6.30;1.37;;;;;;;7.66;80.79;95298.22;6187368;23;20151;-83
2023/10/23 04:39:10;;;;;;;1.20;0.70;;;;;;;7.67;80.56;95295.50;6211116;23;20182;-83
2023/10/23 04:41:35;;;;;;;3.10;0.83;;;;;;;7.65;80.34;95296.59;6186736;23;20154;-82
2023/10/23 04:44:01;;;;;;;2.70;0.77;;;;;;;7.61;80.36;95296.06;6163541;23;20208;-84
2023/10/23 04:46:29;;;;;;;2.37;1.00;;;;;;;7.60;80.50;95299.63;6162543;23;20165;-82
2023/10/23 04:48:54;;;;;;;4.30;0.97;;;;;;;7.57;80.33;95291.28;6161811;23;20201;-82
2023/10/23 04:51:20;;;;;;;3.40;1.03;;;;;;;7.59;80.43;95286.81;6209722;23;20155;-81
2023/10/23 04:53:45;;;;;;;3.07;0.97;;;;;;;7.55;80.49;95283.69;6160106;23;20577;-84
2023/10/23 04:56:10;;;;;;;2.33;0.73;;;;;;;7.55;80.30;95283.69;6160253;23;20185;-84
2023/10/23 04:58:35;;;;;;;2.13;0.80;;;;;;;7.55;80.48;95283.69;6160248;23;20178;-84
2023/10/23 05:01:01;;;;;;;4.90;1.10;;;;;;;7.53;80.48;95283.00;6184501;23;20173;-82
2023/10/23 05:03:26;;;;;;;4.63;1.37;;;;;;;7.50;80.71;95278.09;6209728;23;20246;-82
2023/10/23 05:05:51;;;;;;;3.50;1.00;;;;;;;7.47;80.57;95280.97;6158235;23;20534;-83
2023/10/23 05:08:17;;;;;;;5.90;1.00;;;;;;;7.44;80.27;95273.50;6159113;23;20213;-81
2023/10/23 05:10:47;;;;;;;4.20;1.37;;;;;;;7.42;80.55;95270.22;6184653;23;20499;-82
2023/10/23 05:13:12;;;;;;;2.10;0.97;;;;;;;7.41;80.15;95273.72;6183747;23;20158;-81
2023/10/23 05:15:38;;;;;;;3.50;1.27;;;;;;;7.40;80.48;95269.53;6158195;23;20147;-81
2023/10/23 05:18:03;;;;;;;3.93;0.80;;;;;;;7.38;80.72;95264.50;6157567;23;20178;-80
2023/10/23 05:20:28;;;;;;;3.30;0.90;;;;;;;7.42;80.64;95272.81;6184629;23;20472;-80
2023/10/23 05:22:54;;;;;;;2.37;0.93;;;;;;;7.44;80.54;95267.50;6183501;23;20178;-80
2023/10/23 05:25:19;;;;;;;3.00;0.90;;;;;;;7.44;80.45;95262.34;6157692;23;20529;-80
2023/10/23 05:27:44;;;;;;;3.60;1.00;;;;;;;7.44;80.54;95265.72;6207618;23;20216;-79
2023/10/23 05:30:10;;;;;;;3.13;1.10;;;;;;;7.46;80.38;95271.56;6182816;23;20161;-82
2023/10/23 05:32:35;;;;;;;3.63;0.90;;;;;;;7.48;80.27;95274.03;6158566;23;20682;-81
2023/10/23 05:35:03;;;;;;;3.87;1.20;;;;;;;7.48;80.24;95274.84;6157350;23;20482;-81
2023/10/23 05:37:29;;;;;;;3.97;1.80;;;;;;;7.47;80.14;95280.16;6157575;23;20261;-80
2023/10/23 05:39:54;;;;;;;5.13;1.57;;;;;;;7.46;79.63;95281.09;6157151;23;20202;-81
2023/10/23 05:42:19;;;;;;;3.07;1.40;;;;;;;7.47;79.83;95288.72;6182629;23;20685;-80
2023/10/23 05:44:45;;;;;;;3.70;1.37;;;;;;;7.49;79.89;95291.97;6171951;23;20226;-79
2023/10/23 05:47:10;;;;;;;4.40;1.43;;;;;;;7.51;79.75;95295.25;6235295;22;20178;-80
2023/10/23 05:49:35;;;;;;;5.37;1.33;;;;;;;7.56;79.47;95297.41;6186681;23;20147;-79
2023/10/23 05:52:01;;;;;;;3.60;0.93;;;;;;;7.58;79.57;95304.06;6186380;23;20178;-78
2023/10/23 05:54:26;;;;;;;5.23;0.97;;;;;;;7.71;79.11;95308.19;6186287;23;20177;-78
2023/10/23 05:56:51;;;;;;;2.70;1.30;;;;;;;7.71;79.51;95303.81;6186518;23;20175;-78
2023/10/23 05:59:17;;;;;;;1.70;1.03;;;;;;;7.79;79.17;95295.41;6211519;23;20162;-78
2023/10/23 06:01:42;;;;;;;3.77;1.00;;;;;;;7.90;78.71;95290.06;6186114;23;20210;-78
2023/10/23 06:04:07;;;;;;;2.10;1.30;;;;;;;7.93;78.60;95293.19;6235591;23;20155;-78
2023/10/23 06:06:32;;;;;;;3.17;1.43;;;;;;;8.02;78.40;95303.66;6185407;23;20159;-79
2023/10/23 06:08:59;;;;;;;3.23;1.50;;;;;;;8.05;78.03;95304.22;6185307;23;20175;-79
2023/10/23 06:11:24;;;;;;;2.80;1.20;;;;;;;8.14;78.02;95300.81;6190355;23;20243;-79
2023/10/23 06:13:50;;;;;;;3.93;1.23;;;;;;;8.19;77.51;95308.94;6133819;23;20164;-80
2023/10/23 06:16:15;;;;;;;3.13;1.20;;;;;;;8.26;77.20;95305.81;6112936;23;20179;-78
2023/10/23 06:18:40;;;;;;;2.23;1.37;;;;;;;8.32;77.20;95293.16;6124667;23;20180;-79
2023/10/23 06:21:06;;;;;;;5.37;1.30;;;;;;;8.38;77.00;95291.78;6099101;23;20156;-79
2023/10/23 06:23:37;;;;;;;2.00;1.27;;;;;;;8.42;76.46;95288.78;6163578;23;20199;-80
2023/10/23 06:26:03;;;;;;;4.17;1.47;;;;;;;8.49;76.44;95292.44;6137571;23;20180;-81
2023/10/23 06:28:29;;;;;;;3.10;1.20;;;;;;;8.57;75.97;95289.16;6135688;23;20191;-78
2023/10/23 06:31:03;;;;;;;2.33;1.13;;;;;;;8.68;75.51;95294.16;6111697;23;20160;-79
2023/10/23 06:33:29;;;;;;;3.07;1.40;;;;;;;8.73;75.29;95289.34;6106088;23;20164;-81
2023/10/23 06:35:58;;;;;;;5.63;1.43;;;;;;;8.84;74.46;95290.16;6124782;23;20581;-80
2023/10/23 06:38:23;;;;;;;6.53;1.37;;;;;;;8.92;74.42;95279.88;6122834;23;20176;-78
2023/10/23 06:40:48;;;;;;;2.60;1.10;;;;;;;9.00;74.28;95278.19;6124872;23;20677;-79
2023/10/23 06:43:14;;;;;;;2.70;1.10;;;;;;;9.08;74.06;95288.63;6098973;23;20164;-79
2023/10/23 06:45:39;;;;;;;3.90;1.20;;;;;;;9.11;73.91;95292.75;6098009;23;20176;-81
2023/10/23 06:48:04;;;;;;;3.20;1.57;;;;;;;9.20;73.95;95291.88;6123671;23;20182;-79
2023/10/23 06:50:30;;;;;;;5.67;1.63;;;;;;;9.29;73.50;95291.00;6101309;23;20265;-77
2023/10/23 06:52:56;;;;;;;3.70;1.60;;;;;;;9.33;73.72;95288.91;6099600;23;20168;-81
2023/10/23 06:55:24;;;;;;;5.60;1.60;;;;;;;9.44;73.14;95287.88;6150010;23;20156;-82
2023/10/23 06:57:49;;;;;;;3.03;1.50;;;;;;;9.54;72.72;95267.88;6150190;23;20234;-81
2023/10/23 07:00:15;;;;;;;3.63;1.33;;;;;;;9.55;72.41;95272.94;6152460;23;20160;-82
2023/10/23 07:02:40;;;;;;;3.80;1.23;;;;;;;9.57;72.29;95273.63;6129549;23;20539;-83
2023/10/23 07:05:06;;;;;;;4.03;1.53;;;;;;;9.69;71.59;95268.19;6101779;23;20176;-81
2023/10/23 07:07:31;;;;;;;2.57;1.30;;;;;;;9.80;71.41;95276.56;6127091;23;20179;-82
2023/10/23 07:09:59;;;;;;;3.20;1.40;;;;;;;9.80;71.43;95262.78;6125306;23;20156;-81
2023/10/23 07:12:25;;;;;;;1.47;0.90;;;;;;;9.79;71.75;95267.16;6117469;23;20543;-82
2023/10/23 07:14:50;;;;;;;3.60;1.10;;;;;;;9.91;70.86;95265.97;6096242;23;20156;-81
2023/10/23 07:17:15;;;;;;;5.53;1.10;;;;;;;9.90;71.08;95272.13;6122168;23;20173;-82
2023/10/23 07:19:41;;;;;;;2.80;1.17;;;;;;;10.05;70.20;95274.16;6100976;23;20160;-83
2023/10/23 07:22:09;;;;;;;1.63;1.00;;;;;;;10.07;70.27;95270.47;6075635;23;20172;-81
2023/10/23 07:24:34;;;;;;;1.87;0.90;;;;;;;10.11;70.26;95255.41;6073454;23;20169;-82
2023/10/23 07:26:59;;;;;;;3.13;1.07;;;;;;;10.11;70.31;95256.22;6097522;23;20184;-81
2023/10/23 07:29:25;;;;;;;2.90;1.07;;;;;;;10.19;69.56;95260.66;6097720;23;20215;-82
2023/10/23 07:31:50;;;;;;;2.37;1.33;;;;;;;10.21;69.94;95256.94;6122121;23;20187;-80
2023/10/23 07:34:15;;;;;;;3.80;1.00;;;;;;;10.25;69.82;95251.47;6095212;23;20156;-81
2023/10/23 07:36:41;;;;;;;4.00;1.20;;;;;;;10.24;69.93;95252.44;6120412;23;20192;-81
2023/10/23 07:39:08;;;;;;;4.57;1.40;;;;;;;10.33;69.17;95254.91;6095796;23;20277;-81
2023/10/23 07:41:33;;;;;;;4.70;1.20;;;;;;;10.38;68.75;95257.88;6098133;23;20180;-80
2023/10/23 07:43:58;;;;;;;3.07;1.07;;;;;;;10.46;68.89;95257.94;6094598;23;20520;-81
2023/10/23 07:46:24;;;;;;;2.67;0.93;;;;;;;10.48;68.84;95258.59;6071592;23;20167;-81
2023/10/23 07:48:49;;;;;;;2.30;1.07;;;;;;;10.47;69.18;95250.94;6121718;23;20176;-81
2023/10/23 07:51:15;;;;;;;2.43;1.33;;;;;;;10.50;68.45;95246.25;6098594;23;20222;-82
2023/10/23 07:53:40;;;;;;;2.43;1.13;;;;;;;10.60;69.00;95242.72;6073295;23;20160;-81
2023/10/23 07:56:05;;;;;;;5.27;1.40;;;;;;;10.71;68.84;95238.09;6096957;23;20161;-82
2023/10/23 07:58:31;;;;;;;4.97;1.33;;;;;;;10.69;68.61;95240.03;6121158;23;20193;-81
2023/10/23 08:01:06;;;;;;;3.47;1.27;;;;;;;10.76;68.73;95238.44;6072387;23;20243;-81
2023/10/23 08:03:33;;;;;;;2.10;1.27;;;;;;;10.66;68.92;95229.13;6119158;23;20520;-83
2023/10/23 08:05:59;;;;;;;1.77;1.13;;;;;;;10.72;68.46;95225.94;6070206;23;20172;-82
2023/10/23 08:08:24;;;;;;;3.53;1.20;;;;;;;10.99;67.88;95233.50;6118489;23;20173;-81
2023/10/23 08:10:50;;;;;;;3.50;1.30;;;;;;;10.96;68.47;95226.03;6118654;23;20173;-81
2023/10/23 08:13:15;;;;;;;4.70;1.30;;;;;;;10.90;68.47;95225.84;6115373;23;20588;-81
2023/10/23 08:15:43;;;;;;;5.07;1.43;;;;;;;11.17;67.89;95224.78;6148930;23;20596;-81
2023/10/23 08:18:08;;;;;;;4.17;1.50;;;;;;;11.12;68.67;95224.41;6123996;23;20187;-81
2023/10/23 08:20:36;;;;;;;5.30;1.50;;;;;;;11.10;68.94;95232.38;6148282;23;20519;-80
2023/10/23 08:23:01;;;;;;;3.83;1.47;;;;;;;11.10;67.97;95240.19;6148331;23;20167;-80
2023/10/23 08:25:27;;;;;;;4.67;1.33;;;;;;;11.24;67.65;95234.38;6147642;23;20183;-82
2023/10/23 08:27:52;;;;;;;3.40;1.40;;;;;;;11.30;67.41;95235.50;6123242;23;20176;-82
2023/10/23 08:30:18;;;;;;;3.37;1.17;;;;;;;11.32;67.58;95231.00;6133550;23;20159;-81
2023/10/23 08:32:43;;;;;;;5.17;1.40;;;;;;;11.33;67.43;95238.63;6124626;23;20155;-82
2023/10/23 08:35:09;;;;;;;4.53;1.97;;;;;;;11.52;67.20;95242.72;6149111;23;20160;-82
2023/10/23 08:37:34;;;;;;;2.13;1.30;;;;;;;11.38;67.71;95243.31;6148787;23;20597;-81
2023/10/23 08:40:00;;;;;;;6.67;1.67;;;;;;;11.39;67.82;95254.53;6125209;23;20163;-80
2023/10/23 08:42:27;;;;;;;3.00;1.20;;;;;;;11.46;67.53;95248.53;6124483;23;20180;-81
2023/10/23 08:44:53;;;;;;;2.30;1.43;;;;;;;11.57;67.02;95256.06;6123848;23;20552;-82
2023/10/23 08:47:18;;;;;;;5.60;1.60;;;;;;;11.68;66.50;95257.53;6099808;23;20179;-81
2023/10/23 08:49:44;;;;;;;1.97;1.40;;;;;;;11.78;65.99;95249.56;6148321;23;20692;-82
2023/10/23 08:52:10;;;;;;;1.90;1.20;;;;;;;11.79;66.22;95243.38;6124263;23;20191;-82
2023/10/23 08:54:36;;;;;;;4.00;1.87;;;;;;;11.73;67.04;95250.03;6123331;23;20156;-84
2023/10/23 08:57:02;;;;;;;3.13;1.37;;;;;;;11.78;66.84;95241.75;6124486;23;20592;-79
2023/10/23 08:59:28;;;;;;;3.67;1.40;;;;;;;11.91;66.53;95248.13;6098463;23;20167;-82
2023/10/23 09:01:53;;;;;;;3.03;1.50;;;;;;;11.75;66.72;95242.06;6098692;23;20235;-81
2023/10/23 09:04:18;;;;;;;3.03;1.17;;;;;;;12.01;66.48;95242.75;6122174;23;20234;-79
2023/10/23 09:06:44;;;;;;;5.43;1.10;;;;;;;12.08;66.08;95240.31;6148244;23;20163;-80
2023/10/23 09:09:09;;;;;;;2.10;1.10;;;;;;;12.09;65.89;95234.94;6126140;23;20186;-81
2023/10/23 09:11:46;;;;;;;3.60;1.23;;;;;;;12.06;66.12;95232.66;6149760;23;20160;-81
2023/10/23 09:14:23;;;;;;;2.47;1.40;;;;;;;12.25;65.79;95223.69;6100019;23;20182;-81
2023/10/23 09:16:48;;;;;;;4.57;1.57;;;;;;;12.33;65.24;95225.47;6102956;23;20573;-82
2023/10/23 09:19:36;;;;;;;3.63;1.70;;;;;;;12.39;65.17;95233.44;6123863;23;20270;-81
2023/10/23 09:22:10;;;;;;;2.83;2.10;;;;;;;12.41;64.83;95225.47;6148734;23;20593;-81
2023/10/23 09:24:36;;;;;;;3.00;1.30;;;;;;;12.35;65.77;95216.50;6096658;23;20175;-81
2023/10/23 09:27:01;;;;;;;2.57;1.17;;;;;;;12.50;65.59;95228.84;6127845;23;20206;-80
2023/10/23 09:29:27;;;;;;;3.57;1.70;;;;;;;12.56;65.37;95223.78;6132807;23;20162;-82
2023/10/23 09:31:54;;;;;;;5.07;1.67;;;;;;;12.62;65.21;95230.09;6099208;23;20235;-79
2023/10/23 09:34:21;;;;;;;3.00;1.37;;;;;;;12.49;65.87;95225.44;6098215;23;20563;-81
2023/10/23 09:36:47;;;;;;;3.20;1.50;;;;;;;12.50;65.58;95232.28;6125149;23;20547;-81
2023/10/23 09:39:12;;;;;;;1.87;1.33;;;;;;;12.58;65.46;95236.66;6098458;23;20179;-82
2023/10/23 09:41:38;;;;;;;2.47;1.40;;;;;;;12.42;66.17;95248.72;6149289;23;20654;-81
2023/10/23 09:44:04;;;;;;;3.40;1.40;;;;;;;12.22;66.45;95239.66;6099989;23;20156;-81
2023/10/23 09:46:31;;;;;;;3.57;1.20;;;;;;;12.39;65.80;95237.84;6100126;23;20916;-81
2023/10/23 09:48:59;;;;;;;3.13;1.40;;;;;;;12.15;66.46;95238.69;6100112;23;20561;-78
2023/10/23 09:51:28;;;;;;;1.80;1.30;;;;;;;12.41;66.13;95228.06;6100061;23;20155;-79
2023/10/23 09:53:59;;;;;;;5.13;2.40;;;;;;;12.23;66.42;95228.25;6098911;23;20156;-80
2023/10/23 09:56:29;;;;;;;6.80;3.40;;;;;;;12.37;65.74;95221.56;6099543;23;20144;-79
2023/10/23 09:58:59;;;;;;;6.57;3.63;;;;;;;12.35;65.35;95219.13;6099831;23;20187;-79
2023/10/23 10:01:32;;;;;;;6.47;3.87;;;;;;;12.17;67.04;95219.31;6099015;23;20159;-79
2023/10/23 10:04:04;;;;;;;4.60;2.63;;;;;;;12.32;66.38;95213.44;6098193;23;20148;-77
2023/10/23 10:06:31;;;;;;;5.37;2.37;;;;;;;12.23;66.87;95222.25;6099414;23;20182;-80
2023/10/23 10:08:57;;;;;;;7.40;2.60;;;;;;;12.44;66.33;95220.72;6147790;23;20179;-80
2023/10/23 10:11:23;;;;;;;3.03;2.40;;;;;;;12.33;66.81;95215.06;6123756;23;20552;-79
2023/10/23 10:13:48;;;;;;;3.13;1.87;;;;;;;12.51;66.52;95217.44;6122851;23;20168;-80
2023/10/23 10:16:14;;;;;;;3.40;1.90;;;;;;;12.53;66.40;95218.91;6098978;23;20156;-80
2023/10/23 10:18:40;;;;;;;4.17;1.70;;;;;;;12.64;66.01;95215.16;6124310;23;20295;-81
2023/10/23 10:21:09;;;;;;;4.07;1.77;;;;;;;12.60;66.08;95211.25;6148436;23;20215;-80
2023/10/23 10:23:35;;;;;;;3.10;1.70;;;;;;;12.60;65.97;95204.22;6076051;23;20256;-81
2023/10/23 10:26:03;;;;;;;3.00;1.60;;;;;;;12.46;65.81;95199.75;6104309;23;20248;-78
2023/10/23 10:28:28;;;;;;;3.50;1.70;;;;;;;12.49;66.21;95202.00;6129836;23;20263;-78
2023/10/23 10:30:54;;;;;;;3.97;2.83;;;;;;;12.60;66.17;95196.41;6130371;23;20155;-80
2023/10/23 10:33:29;;;;;;;4.30;1.80;;;;;;;12.58;65.91;95193.19;6127624;23;20210;-81
2023/10/23 10:35:57;;;;;;;3.13;1.60;;;;;;;12.64;65.14;95189.09;6101617;23;20150;-82
2023/10/23 10:38:24;;;;;;;4.00;1.40;;;;;;;12.48;66.19;95193.38;6104539;23;20570;-79
2023/10/23 10:41:01;;;;;;;1.60;1.07;;;;;;;12.62;65.67;95178.81;6102677;23;20159;-80
2023/10/23 10:43:40;;;;;;;4.33;1.20;;;;;;;12.76;65.15;95172.91;6101530;23;20160;-79
2023/10/23 10:46:24;;;;;;;3.03;1.43;;;;;;;12.72;65.48;95171.66;6101281;23;20219;-80
2023/10/23 10:48:54;;;;;;;2.50;1.23;;;;;;;12.94;64.51;95164.03;6101581;23;20270;-79
2023/10/23 10:51:24;;;;;;;4.73;1.57;;;;;;;13.11;64.34;95157.75;6101295;23;20167;-80
2023/10/23 10:54:06;;;;;;;1.77;1.60;;;;;;;13.04;64.73;95156.81;6125091;23;20152;-79
2023/10/23 10:56:31;;;;;;;2.03;1.40;;;;;;;13.27;64.21;95149.03;6101934;23;20647;-80
2023/10/23 10:59:04;;;;;;;2.73;1.50;;;;;;;13.27;63.87;95141.22;6125703;23;20171;-79
2023/10/23 11:01:29;;;;;;;1.63;1.20;;;;;;;13.38;62.94;95142.59;6125180;23;20684;-80
2023/10/23 11:03:55;;;;;;;2.00;1.30;;;;;;;13.42;63.63;95139.44;6125183;23;20168;-79
2023/10/23 11:06:21;;;;;;;3.47;1.50;;;;;;;13.30;64.01;95131.25;6125132;23;20623;-78
2023/10/23 11:08:46;;;;;;;3.17;1.40;;;;;;;13.43;63.17;95114.19;6100201;23;20187;-79
2023/10/23 11:11:12;;;;;;;2.93;1.60;;;;;;;13.60;62.60;95118.28;6124953;23;20182;-80
2023/10/23 11:13:40;;;;;;;6.27;1.40;;;;;;;13.67;62.44;95118.38;6125460;23;20575;-81
2023/10/23 11:16:05;;;;;;;2.40;1.57;;;;;;;13.66;63.08;95106.34;6124640;23;20183;-80
2023/10/23 11:18:31;;;;;;;3.70;1.40;;;;;;;13.67;62.67;95111.38;6101113;23;20180;-78
2023/10/23 11:20:58;;;;;;;2.17;1.40;;;;;;;13.75;62.51;95106.06;6126506;23;20624;-81
2023/10/23 11:23:23;;;;;;;2.33;1.30;;;;;;;13.67;62.69;95100.13;6101796;23;20156;-80
2023/10/23 11:25:49;;;;;;;2.53;1.13;;;;;;;13.64;62.73;95090.06;6149765;23;20219;-82
2023/10/23 11:28:18;;;;;;;5.97;3.23;;;;;;;13.92;62.10;95088.47;6102209;23;20650;-81
2023/10/23 11:30:46;;;;;;;2.60;1.67;;;;;;;14.00;61.82;95079.75;6125727;23;20194;-81
2023/10/23 11:33:12;;;;;;;4.60;1.60;;;;;;;14.23;61.07;95075.25;6102194;23;20168;-81
2023/10/23 11:35:37;;;;;;;5.73;2.40;;;;;;;14.28;61.25;95070.28;6126043;23;20175;-81